createdAt,value
2023-01-23T00:01:13.179Z,-2.80
2023-01-23T00:03:40.012Z,-2.90
2023-01-23T00:06:10.782Z,-3.00
2023-01-23T00:08:38.321Z,-3.00
2023-01-23T00:11:11.342Z,-3.10
2023-01-23T00:13:38.654Z,-3.00
2023-01-23T00:16:14.846Z,-3.00
2023-01-23T00:18:42.100Z,-2.90
2023-01-23T00:21:11.448Z,-2.90
2023-01-23T00:23:41.548Z,-2.90
2023-01-23T00:26:11.204Z,-2.90
2023-01-23T00:28:37.988Z,-2.90
2023-01-23T00:31:13.066Z,-3.00
2023-01-23T00:33:40.489Z,-3.00
2023-01-23T00:36:08.487Z,-3.10
2023-01-23T00:38:36.136Z,-3.20
2023-01-23T00:41:03.751Z,-3.30
2023-01-23T00:43:31.187Z,-3.30
2023-01-23T00:45:58.102Z,-3.40
2023-01-23T00:48:25.199Z,-3.50
2023-01-23T00:50:53.217Z,-3.50
2023-01-23T00:53:20.273Z,-3.50
2023-01-23T00:55:47.077Z,-3.50
2023-01-23T00:58:13.860Z,-3.50
2023-01-23T01:00:40.817Z,-3.60
2023-01-23T01:03:08.578Z,-3.60
2023-01-23T01:05:35.524Z,-3.60
2023-01-23T01:08:02.404Z,-3.60
2023-01-23T01:10:29.694Z,-3.60
2023-01-23T01:12:57.800Z,-3.50
2023-01-23T01:15:25.072Z,-3.40
2023-01-23T01:17:54.236Z,-3.40
2023-01-23T01:20:26.064Z,-3.30
2023-01-23T01:22:54.549Z,-3.20
2023-01-23T01:25:21.431Z,-3.20
2023-01-23T01:27:48.599Z,-3.20
2023-01-23T01:30:17.682Z,-3.10
2023-01-23T01:32:45.208Z,-3.00
2023-01-23T01:35:12.651Z,-3.00
2023-01-23T01:37:40.771Z,-2.90
2023-01-23T01:40:12.082Z,-2.90
2023-01-23T01:42:43.515Z,-2.90
2023-01-23T01:45:48.100Z,-2.90
2023-01-23T01:48:15.444Z,-2.80
2023-01-23T01:50:42.709Z,-2.80
2023-01-23T01:53:10.807Z,-2.80
2023-01-23T01:55:39.070Z,-2.80
2023-01-23T01:58:06.523Z,-2.70
2023-01-23T02:00:33.444Z,-2.70
2023-01-23T02:03:03.424Z,-2.70
2023-01-23T02:05:43.013Z,-2.70
2023-01-23T02:08:26.758Z,-2.70
2023-01-23T02:10:53.921Z,-2.70
2023-01-23T02:13:39.433Z,-2.70
2023-01-23T02:16:10.446Z,-2.70
2023-01-23T02:18:42.686Z,-2.70
2023-01-23T02:21:10.824Z,-2.70
2023-01-23T02:24:01.433Z,-2.80
2023-01-23T02:26:32.933Z,-2.70
2023-01-23T02:28:59.853Z,-2.60
2023-01-23T02:31:27.276Z,-2.60
2023-01-23T02:33:56.624Z,-2.50
2023-01-23T02:36:27.282Z,-2.50
2023-01-23T02:39:15.319Z,-2.50
2023-01-23T02:41:50.229Z,-2.60
2023-01-23T02:44:19.988Z,-2.60
2023-01-23T02:46:46.777Z,-2.60
2023-01-23T02:49:13.651Z,-2.50
2023-01-23T02:51:40.415Z,-2.50
2023-01-23T02:54:07.365Z,-2.50
2023-01-23T02:56:34.372Z,-2.50
2023-01-23T02:59:19.663Z,-2.50
2023-01-23T03:01:46.660Z,-2.50
2023-01-23T03:04:13.483Z,-2.50
2023-01-23T03:06:40.236Z,-2.40
2023-01-23T03:09:10.353Z,-2.40
2023-01-23T03:11:39.725Z,-2.40
2023-01-23T03:14:08.773Z,-2.40
2023-01-23T03:16:38.281Z,-2.30
2023-01-23T03:19:09.014Z,-2.30
2023-01-23T03:21:40.445Z,-2.30
2023-01-23T03:24:09.360Z,-2.30
2023-01-23T03:26:39.034Z,-2.20
2023-01-23T03:29:24.841Z,-2.20
2023-01-23T03:31:52.062Z,-2.10
2023-01-23T03:34:19.166Z,-2.20
2023-01-23T03:36:45.996Z,-2.20
2023-01-23T03:39:31.246Z,-2.20
2023-01-23T03:41:58.010Z,-2.20
2023-01-23T03:44:24.840Z,-2.20
2023-01-23T03:46:52.454Z,-2.20
2023-01-23T03:49:19.890Z,-2.20
2023-01-23T03:51:47.047Z,-2.30
2023-01-23T03:54:14.848Z,-2.30
2023-01-23T03:56:42.477Z,-2.30
2023-01-23T03:59:10.227Z,-2.30
2023-01-23T04:01:38.057Z,-2.30
2023-01-23T04:04:05.416Z,-2.30
2023-01-23T04:06:32.728Z,-2.30
2023-01-23T04:08:59.605Z,-2.30
2023-01-23T04:11:27.035Z,-2.20
2023-01-23T04:13:55.129Z,-2.20
2023-01-23T04:16:22.908Z,-2.20
2023-01-23T04:18:51.132Z,-2.20
2023-01-23T04:21:18.096Z,-2.30
2023-01-23T04:23:44.943Z,-2.30
2023-01-23T04:26:12.338Z,-2.30
2023-01-23T04:28:39.359Z,-2.30
2023-01-23T04:31:06.793Z,-2.30
2023-01-23T04:33:33.675Z,-2.20
2023-01-23T04:36:03.414Z,-2.20
2023-01-23T04:38:31.528Z,-2.30
2023-01-23T04:40:58.391Z,-2.30
2023-01-23T04:43:25.523Z,-2.30
2023-01-23T04:45:54.412Z,-2.20
2023-01-23T04:48:21.759Z,-2.10
2023-01-23T04:50:49.918Z,-2.20
2023-01-23T04:53:16.790Z,-2.20
2023-01-23T04:55:46.203Z,-2.20
2023-01-23T04:58:13.037Z,-2.20
2023-01-23T05:00:39.883Z,-2.20
2023-01-23T05:03:06.657Z,-2.20
2023-01-23T05:05:33.537Z,-2.20
2023-01-23T05:08:00.568Z,-2.10
2023-01-23T05:10:27.415Z,-2.10
2023-01-23T05:12:54.206Z,-2.00
2023-01-23T05:15:21.378Z,-2.00
2023-01-23T05:17:48.948Z,-2.00
2023-01-23T05:20:16.100Z,-2.00
2023-01-23T05:22:52.426Z,-2.00
2023-01-23T05:25:25.095Z,-2.00
2023-01-23T05:27:52.628Z,-2.00
2023-01-23T05:30:23.109Z,-2.00
2023-01-23T05:32:50.106Z,-2.10
2023-01-23T05:35:17.395Z,-2.10
2023-01-23T05:37:48.794Z,-2.10
2023-01-23T05:40:15.663Z,-2.00
2023-01-23T05:42:42.461Z,-2.00
2023-01-23T05:45:09.636Z,-2.00
2023-01-23T05:47:36.493Z,-2.00
2023-01-23T05:50:04.613Z,-2.00
2023-01-23T05:52:31.406Z,-2.00
2023-01-23T05:54:58.252Z,-2.00
2023-01-23T05:57:25.134Z,-2.00
2023-01-23T05:59:51.921Z,-2.00
2023-01-23T06:02:18.809Z,-2.00
2023-01-23T06:04:48.032Z,-2.00
2023-01-23T06:07:16.421Z,-2.10
2023-01-23T06:09:43.282Z,-2.10
2023-01-23T06:12:10.328Z,-2.00
2023-01-23T06:14:37.279Z,-2.00
2023-01-23T06:17:04.581Z,-2.00
2023-01-23T06:19:31.495Z,-2.00
2023-01-23T06:21:58.365Z,-2.00
2023-01-23T06:24:25.258Z,-2.00
2023-01-23T06:26:52.027Z,-2.00
2023-01-23T06:29:18.845Z,-2.00
2023-01-23T06:31:49.497Z,-2.00
2023-01-23T06:34:36.970Z,-2.00
2023-01-23T06:37:04.535Z,-2.00
2023-01-23T06:39:55.405Z,-2.00
2023-01-23T06:42:31.381Z,-2.10
2023-01-23T06:44:58.585Z,-1.70
2023-01-23T06:47:34.383Z,-1.80
2023-01-23T06:50:07.415Z,-1.90
2023-01-23T06:52:34.729Z,-1.90
2023-01-23T06:55:02.370Z,-2.00
2023-01-23T07:03:17.136Z,-2.00
2023-01-23T07:10:36.909Z,-2.00
2023-01-23T07:12:10.197Z,-2.00
2023-01-23T07:18:16.893Z,-2.10
2023-01-23T07:20:50.786Z,-2.00
2023-01-23T07:23:40.623Z,-2.00
2023-01-23T07:26:10.062Z,-2.00
2023-01-23T07:28:49.089Z,-2.00
2023-01-23T07:31:18.347Z,-2.00
2023-01-23T07:33:48.435Z,-2.00
2023-01-23T07:36:37.096Z,-1.90
2023-01-23T07:39:11.188Z,-1.90
2023-01-23T07:44:38.914Z,-1.90
2023-01-23T07:47:08.799Z,-1.90
2023-01-23T07:49:35.785Z,-1.90
2023-01-23T07:52:22.148Z,-1.90
2023-01-23T07:54:51.904Z,-1.80
2023-01-23T07:57:19.031Z,-1.80
2023-01-23T07:59:47.918Z,-1.80
2023-01-23T08:02:24.172Z,-1.80
2023-01-23T08:04:51.546Z,-1.80
2023-01-23T08:07:18.698Z,-1.40
2023-01-23T08:09:49.747Z,-1.10
2023-01-23T08:12:28.365Z,-0.80
2023-01-23T08:14:56.788Z,-0.50
2023-01-23T08:17:26.992Z,-0.40
2023-01-23T08:19:56.966Z,-0.80
2023-01-23T08:22:37.477Z,-1.00
2023-01-23T08:25:04.979Z,-1.20
2023-01-23T08:27:32.036Z,-1.20
2023-01-23T08:29:59.268Z,-1.20
2023-01-23T08:32:26.424Z,-1.20
2023-01-23T08:34:56.339Z,-1.20
2023-01-23T08:37:23.195Z,-1.20
2023-01-23T08:39:49.970Z,-1.20
2023-01-23T08:42:16.755Z,-1.20
2023-01-23T08:44:43.525Z,-1.20
2023-01-23T08:47:10.341Z,-1.10
2023-01-23T08:49:37.249Z,-1.10
2023-01-23T08:52:05.920Z,-1.00
2023-01-23T08:54:33.136Z,-1.00
2023-01-23T08:56:59.956Z,-1.00
2023-01-23T08:59:26.831Z,-0.90
2023-01-23T09:01:53.668Z,-0.90
2023-01-23T09:04:20.456Z,-0.80
2023-01-23T09:06:47.282Z,-0.80
2023-01-23T09:09:14.088Z,-0.80
2023-01-23T09:11:40.879Z,-0.80
2023-01-23T09:14:07.857Z,-0.70
2023-01-23T09:16:34.730Z,-0.70
2023-01-23T09:19:01.514Z,-0.60
2023-01-23T09:21:28.387Z,-0.60
2023-01-23T09:23:58.882Z,-0.60
2023-01-23T09:26:26.228Z,-0.60
2023-01-23T09:28:54.539Z,-0.60
2023-01-23T09:31:21.378Z,-0.60
2023-01-23T09:33:49.206Z,-0.50
2023-01-23T09:36:16.064Z,-0.40
2023-01-23T09:38:42.928Z,0.00
2023-01-23T09:41:17.858Z,0.10
2023-01-23T09:43:55.530Z,0.20
2023-01-23T09:46:37.506Z,0.40
2023-01-23T09:49:13.104Z,0.70
2023-01-23T09:52:01.702Z,0.80
2023-01-23T09:54:28.525Z,0.60
2023-01-23T09:56:56.579Z,0.50
2023-01-23T09:59:58.723Z,0.30
2023-01-23T10:02:28.148Z,0.50
2023-01-23T10:04:56.596Z,0.50
2023-01-23T10:07:37.922Z,0.40
2023-01-23T10:10:40.316Z,0.40
2023-01-23T10:13:41.912Z,0.30
2023-01-23T10:16:22.832Z,0.40
2023-01-23T10:19:05.510Z,0.60
2023-01-23T10:21:52.237Z,0.60
2023-01-23T10:24:58.328Z,0.60
2023-01-23T10:27:31.431Z,0.50
2023-01-23T10:30:03.736Z,0.70
2023-01-23T10:32:37.538Z,0.60
2023-01-23T10:35:12.607Z,0.30
2023-01-23T10:37:52.703Z,0.10
2023-01-23T10:40:42.416Z,0.00
2023-01-23T10:43:18.038Z,0.00
2023-01-23T10:45:49.793Z,0.00
2023-01-23T10:48:39.122Z,0.10
2023-01-23T10:51:39.507Z,0.20
2023-01-23T10:54:11.322Z,0.10
2023-01-23T10:56:53.711Z,0.10
2023-01-23T10:59:26.638Z,0.10
2023-01-23T11:02:13.808Z,0.10
2023-01-23T11:04:45.985Z,0.20
2023-01-23T11:07:20.515Z,0.20
2023-01-23T11:10:00.561Z,0.20
2023-01-23T11:12:28.644Z,0.40
2023-01-23T11:15:21.326Z,0.40
2023-01-23T11:17:49.695Z,0.50
2023-01-23T11:20:33.457Z,0.50
2023-01-23T11:23:01.399Z,0.50
2023-01-23T11:25:39.972Z,0.50
2023-01-23T11:28:30.812Z,0.50
2023-01-23T11:31:27.323Z,0.60
2023-01-23T11:33:59.336Z,0.70
2023-01-23T11:36:53.298Z,0.80
2023-01-23T11:39:42.066Z,0.80
2023-01-23T11:42:13.625Z,0.70
2023-01-23T11:44:46.518Z,0.70
2023-01-23T11:47:34.809Z,0.60
2023-01-23T11:50:04.488Z,0.50
2023-01-23T11:52:34.641Z,0.40
2023-01-23T11:55:39.756Z,0.50
2023-01-23T11:58:39.571Z,0.50
2023-01-23T12:01:15.725Z,0.40
2023-01-23T12:04:00.725Z,0.40
2023-01-23T12:06:45.743Z,0.30
2023-01-23T12:09:18.061Z,0.40
2023-01-23T12:12:15.286Z,0.40
2023-01-23T12:15:03.585Z,0.30
2023-01-23T12:17:46.935Z,0.40
2023-01-23T12:20:33.215Z,0.60
2023-01-23T12:23:32.471Z,0.70
2023-01-23T12:26:04.883Z,0.70
2023-01-23T12:28:45.129Z,0.70
2023-01-23T12:31:33.724Z,0.70
2023-01-23T12:34:03.644Z,0.80
2023-01-23T12:37:07.188Z,0.80
2023-01-23T12:39:59.814Z,0.80
2023-01-23T12:42:43.531Z,0.70
2023-01-23T12:45:22.939Z,0.70
2023-01-23T12:48:02.055Z,0.80
2023-01-23T12:50:35.206Z,0.70
2023-01-23T12:53:09.917Z,0.70
2023-01-23T12:55:59.284Z,0.70
2023-01-23T12:58:29.167Z,0.90
2023-01-23T13:01:07.800Z,0.90
2023-01-23T13:03:56.842Z,1.00
2023-01-23T13:06:35.607Z,1.00
2023-01-23T13:09:18.715Z,1.00
2023-01-23T13:12:05.057Z,1.00
2023-01-23T13:14:43.489Z,1.00
2023-01-23T13:17:37.037Z,1.00
2023-01-23T13:20:47.284Z,0.90
2023-01-23T13:23:35.367Z,0.90
2023-01-23T13:26:19.459Z,0.90
2023-01-23T13:28:57.234Z,0.80
2023-01-23T13:31:47.640Z,0.80
2023-01-23T13:34:17.783Z,0.80
2023-01-23T13:36:49.668Z,0.80
2023-01-23T13:39:22.928Z,0.80
2023-01-23T13:42:12.796Z,0.80
2023-01-23T13:45:14.650Z,0.80
2023-01-23T14:22:40.949Z,0.70
2023-01-23T14:25:17.550Z,0.70
2023-01-23T14:27:53.282Z,0.70
2023-01-23T14:30:28.251Z,0.70
2023-01-23T14:32:56.675Z,0.80
2023-01-23T14:35:30.792Z,0.80
2023-01-23T14:38:00.790Z,0.90
2023-01-23T14:40:33.421Z,0.90
2023-01-23T14:43:09.810Z,0.80
2023-01-23T14:45:37.663Z,0.80
2023-01-23T14:48:15.816Z,0.80
2023-01-23T14:50:43.004Z,0.90
2023-01-23T14:53:15.271Z,0.80
2023-01-23T14:55:46.232Z,0.80
2023-01-23T14:58:23.886Z,0.90
2023-01-23T15:01:04.748Z,0.80
2023-01-23T15:03:36.215Z,0.80
2023-01-23T15:06:08.431Z,0.80
2023-01-23T15:08:36.922Z,0.80
2023-01-23T15:11:06.491Z,0.80
2023-01-23T15:13:50.312Z,0.80
2023-01-23T15:16:26.080Z,0.80
2023-01-23T15:19:08.178Z,0.80
2023-01-23T15:21:38.553Z,0.80
2023-01-23T15:24:20.416Z,0.80
2023-01-23T15:26:55.927Z,0.80
2023-01-23T15:29:23.094Z,0.80
2023-01-23T15:31:52.602Z,0.80
2023-01-23T15:34:31.614Z,0.70
2023-01-23T15:37:13.689Z,0.80
2023-01-23T15:39:51.485Z,0.70
2023-01-23T15:42:18.216Z,0.80
2023-01-23T15:44:45.344Z,0.70
2023-01-23T15:47:12.150Z,0.70
2023-01-23T15:49:40.163Z,0.70
2023-01-23T15:52:46.028Z,0.70
2023-01-23T15:55:13.403Z,0.70
2023-01-23T15:57:41.892Z,0.70
2023-01-23T16:00:24.883Z,0.70
2023-01-23T16:02:56.734Z,0.70
2023-01-23T16:05:30.178Z,0.60
2023-01-23T16:08:01.161Z,0.60
2023-01-23T16:10:36.222Z,0.60
2023-01-23T16:13:03.107Z,0.60
2023-01-23T16:15:32.981Z,0.60
2023-01-23T16:18:00.887Z,0.60
2023-01-23T16:20:31.063Z,0.60
2023-01-23T16:23:18.751Z,0.60
2023-01-23T16:25:46.682Z,0.60
2023-01-23T16:28:15.883Z,0.60
2023-01-23T16:30:42.959Z,0.60
2023-01-23T16:33:09.991Z,0.60
2023-01-23T16:35:36.952Z,0.60
2023-01-23T16:38:04.191Z,0.50
2023-01-23T16:40:32.108Z,0.60
2023-01-23T16:43:00.051Z,0.60
2023-01-23T16:45:29.341Z,0.60
2023-01-23T16:47:56.669Z,0.50
2023-01-23T16:50:44.010Z,0.50
2023-01-23T16:53:31.288Z,0.50
2023-01-23T16:56:00.468Z,0.60
2023-01-23T16:58:30.870Z,0.60
2023-01-23T17:01:08.803Z,0.50
2023-01-23T17:03:40.725Z,0.50
2023-01-23T17:06:17.036Z,0.50
2023-01-23T17:08:43.874Z,0.50
2023-01-23T17:11:20.010Z,0.50
2023-01-23T17:13:48.235Z,0.60
2023-01-23T17:16:26.439Z,0.60
2023-01-23T17:18:55.688Z,0.60
2023-01-23T17:21:25.010Z,0.60
2023-01-23T17:23:52.212Z,0.60
2023-01-23T17:26:20.902Z,0.60
2023-01-23T17:28:48.154Z,0.60
2023-01-23T17:31:24.751Z,0.70
2023-01-23T17:33:55.907Z,0.70
2023-01-23T17:36:22.838Z,0.70
2023-01-23T17:38:57.966Z,0.70
2023-01-23T17:41:24.841Z,0.70
2023-01-23T17:43:52.757Z,0.60
2023-01-23T17:46:23.881Z,0.70
2023-01-23T17:48:50.771Z,0.70
2023-01-23T17:51:19.529Z,0.70
2023-01-23T17:53:46.896Z,0.60
2023-01-23T17:56:14.159Z,0.70
2023-01-23T17:58:41.054Z,0.60
2023-01-23T18:01:22.349Z,0.60
2023-01-23T18:03:50.756Z,0.60
2023-01-23T18:06:18.654Z,0.60
2023-01-23T18:08:46.166Z,0.60
2023-01-23T18:11:21.852Z,0.60
2023-01-23T18:13:59.910Z,0.60
2023-01-23T18:16:35.206Z,0.60
2023-01-23T18:19:17.047Z,0.60
2023-01-23T18:21:45.873Z,0.60
2023-01-23T18:24:30.307Z,0.60
2023-01-23T18:27:04.876Z,0.60
2023-01-23T18:29:43.886Z,0.60
2023-01-23T18:32:18.848Z,0.60
2023-01-23T18:35:23.644Z,0.60
2023-01-23T18:38:07.587Z,0.60
2023-01-23T18:41:01.186Z,0.60
2023-01-23T18:43:39.802Z,0.50
2023-01-23T18:46:15.313Z,0.50
2023-01-23T18:48:43.722Z,0.60
2023-01-23T18:51:38.632Z,0.60
2023-01-23T18:54:23.044Z,0.60
2023-01-23T18:57:26.165Z,0.60
2023-01-23T19:00:17.705Z,0.60
2023-01-23T19:02:46.855Z,0.50
2023-01-23T19:05:16.706Z,0.50
2023-01-23T19:07:45.065Z,0.60
2023-01-23T19:10:17.627Z,0.60
2023-01-23T19:13:02.104Z,0.60
2023-01-23T19:15:30.243Z,0.60
2023-01-23T19:18:12.356Z,0.50
2023-01-23T19:20:55.416Z,0.50
2023-01-23T19:23:44.295Z,0.60
2023-01-23T19:26:16.596Z,0.60
2023-01-23T19:28:43.780Z,0.50
2023-01-23T19:31:37.846Z,0.50
2023-01-23T19:34:06.641Z,0.50
2023-01-23T19:36:35.989Z,0.50
2023-01-23T19:39:04.532Z,0.50
2023-01-23T19:41:49.248Z,0.50
2023-01-23T19:44:18.917Z,0.60
2023-01-23T19:46:46.219Z,0.50
2023-01-23T19:49:14.080Z,0.60
2023-01-23T19:51:41.508Z,0.60
2023-01-23T19:54:12.516Z,0.60
2023-01-23T19:56:39.521Z,0.60
2023-01-23T19:59:07.078Z,0.60
2023-01-23T20:01:34.596Z,0.60
2023-01-23T20:04:05.252Z,0.60
2023-01-23T20:06:34.323Z,0.50
2023-01-23T20:09:01.262Z,0.60
2023-01-23T20:11:28.147Z,0.60
2023-01-23T20:13:54.916Z,0.60
2023-01-23T20:16:25.120Z,0.60
2023-01-23T20:18:53.673Z,0.60
2023-01-23T20:21:23.007Z,0.60
2023-01-23T20:23:50.592Z,0.60
2023-01-23T20:26:19.549Z,0.50
2023-01-23T20:28:53.345Z,0.50
2023-01-23T20:31:20.301Z,0.50
2023-01-23T20:33:47.531Z,0.50
2023-01-23T20:36:15.965Z,0.50
2023-01-23T20:38:43.221Z,0.50
2023-01-23T20:41:15.322Z,0.50
2023-01-23T20:43:45.451Z,0.50
2023-01-23T20:46:14.389Z,0.50
2023-01-23T20:48:46.009Z,0.60
2023-01-23T20:51:15.056Z,0.60
2023-01-23T20:53:41.926Z,0.60
2023-01-23T20:56:20.096Z,0.60
2023-01-23T20:59:07.810Z,0.60
2023-01-23T21:01:56.648Z,0.60
2023-01-23T21:04:28.670Z,0.60
2023-01-23T21:06:55.537Z,0.60
2023-01-23T21:09:23.211Z,0.60
2023-01-23T21:11:51.702Z,0.60
2023-01-23T21:14:19.395Z,0.60
2023-01-23T21:16:47.150Z,0.60
2023-01-23T21:19:14.821Z,0.60
2023-01-23T21:21:41.997Z,0.60
2023-01-23T21:24:09.197Z,0.60
2023-01-23T21:26:37.355Z,0.60
2023-01-23T21:29:04.729Z,0.50
2023-01-23T21:31:34.176Z,0.50
2023-01-23T21:34:10.320Z,0.60
2023-01-23T21:36:37.912Z,0.60
2023-01-23T21:39:05.445Z,0.50
2023-01-23T21:41:32.227Z,0.50
2023-01-23T21:43:59.036Z,0.60
2023-01-23T21:46:25.905Z,0.60
2023-01-23T21:48:52.734Z,0.50
2023-01-23T21:51:21.737Z,0.50
2023-01-23T21:53:50.372Z,0.50
2023-01-23T21:56:19.618Z,0.50
2023-01-23T21:58:49.315Z,0.50
2023-01-23T22:01:35.680Z,0.50
2023-01-23T22:04:22.448Z,0.50
2023-01-23T22:06:54.093Z,0.50
2023-01-23T22:09:24.646Z,0.50
2023-01-23T22:11:52.177Z,0.50
2023-01-23T22:14:19.369Z,0.50
2023-01-23T22:16:49.698Z,0.50
2023-01-23T22:19:21.049Z,0.60
2023-01-23T22:21:49.496Z,0.50
2023-01-23T22:24:16.371Z,0.50
2023-01-23T22:26:43.553Z,0.60
2023-01-23T22:29:14.965Z,0.50
2023-01-23T22:31:42.617Z,0.50
2023-01-23T22:34:09.977Z,0.50
2023-01-23T22:36:36.814Z,0.50
2023-01-23T22:39:04.081Z,0.50
2023-01-23T22:41:30.912Z,0.50
2023-01-23T22:43:59.455Z,0.50
2023-01-23T22:46:26.609Z,0.50
2023-01-23T22:48:53.550Z,0.50
2023-01-23T22:51:24.621Z,0.50
2023-01-23T22:53:53.195Z,0.50
2023-01-23T22:56:20.518Z,0.50
2023-01-23T22:58:48.583Z,0.50
2023-01-23T23:01:16.296Z,0.50
2023-01-23T23:03:43.295Z,0.50
2023-01-23T23:06:12.842Z,0.50
2023-01-23T23:08:39.791Z,0.50
2023-01-23T23:11:14.547Z,0.50
2023-01-23T23:13:41.586Z,0.50
2023-01-23T23:16:21.991Z,0.50
2023-01-23T23:18:51.935Z,0.50
2023-01-23T23:21:22.342Z,0.50
2023-01-23T23:23:49.588Z,0.50
2023-01-23T23:26:16.884Z,0.50
2023-01-23T23:28:43.897Z,0.50
2023-01-23T23:31:10.969Z,0.50
2023-01-23T23:33:38.195Z,0.50
2023-01-23T23:36:05.886Z,0.50
2023-01-23T23:38:32.932Z,0.50
2023-01-23T23:41:02.200Z,0.50
2023-01-23T23:43:29.389Z,0.50
2023-01-23T23:45:58.732Z,0.50
2023-01-23T23:48:26.444Z,0.50
2023-01-23T23:50:54.266Z,0.50
2023-01-23T23:53:22.114Z,0.60
2023-01-23T23:55:49.362Z,0.60
2023-01-23T23:58:16.221Z,0.50
